Union, KY

11:07 AM EDT on September 17, 2014 (GMT -0400)
Hook Field Municipal | Change Station
CLOSE
Current Station
Airport
Location: Middletown,
Elevation: 650 ft
Nearby Weather Stations

Elev 650 ft 39.53 °N, 84.40 °W | Updated 12 minutes ago

Overcast
Overcast
59 °F
Feels Like 59 °F
N
5
Wind Variable Wind from NNE

Today
High -- | Low -- °F
--% Chance of Precip.
Yesterday
High -- | Low -- °F
Precip. -- in
7:22 AM 7:43 PM
Waning Crescent, 35% visible
Pressure 30.09 in
Visibility 10.0 miles
Clouds Overcast 3700 ft
Dew Point 52 °F
Humidity 78%
Rainfall 0.00 in
Snow Depth Not available.
UV 1 out of 12
Pollen 4.60 out of 12
Air Quality Not available.
Flu Activity Not available.
METAR KMWO 171455Z AUTO 02004KT 10SM OVC037 15/11 A3009 RMK AO2 T01510112

More Conditions Fewer Conditions

Pressure 30.09 in
Visibility 10.0 miles
Clouds Overcast 3700 ft
Dew Point 52 °F
Humidity 78%
Rainfall 0.00 in
Snow Depth Not available.
UV 1 out of 12
Pollen 4.60 out of 12
Air Quality Not available.
Flu Activity Not available.
METAR KMWO 171455Z AUTO 02004KT 10SM OVC037 15/11 A3009 RMK AO2 T01510112

More Conditions Fewer Conditions

10-Day Weather Forecast

Almanac

Astronomy

Sep. 17, 2014 Rise Set
Actual Time 7:22 AM EDT 7:43 PM EDT
Civil Twilight 6:55 AM EDT 8:10 PM EDT
Nautical Twilight 6:23 AM EDT 8:41 PM EDT
Astronomical Twilight 5:51 AM EDT 9:13 PM EDT
Moon 1:23 AM EDT 3:50 PM EDT
Length of Visible Light 13h 15m
Length of Day
12h 21m
Tomorrow will be 2m 29s shorter.
Waning Crescent, 35% of the Moon is Illuminated
Today
Waning Crescent
Sep 24
New
Oct 1
First Quarter
Oct 8
Full
Oct 15
Last Quarter

Today's Extremes

State Highs State Lows

Community

WunderPhotos

Upload Photos

1,754,064 photos uploaded!

WunderBlogs® & News

Nearby

Snow Depth

Station Depth Elevation
No new snow has been reported.

Earthquake Activity

City Distance Mag. Time & Date
No recent earthquake activity has been reported nearby.
Minimum magnitude displayed is 2.5.

Coastal Water Temperatures

Place Temperature
No Stations Reporting

Nearby Weather Stations